sensor_id;sensor_type;location;lat;lon;timestamp;P1;durP1;ratioP1;P2;durP2;ratioP2
76610;SDS011;65503;48.534;9.062;2023-10-31T00:02:11;0.55;;;0.55;;
76610;SDS011;65503;48.534;9.062;2023-10-31T00:04:38;0.40;;;0.40;;
76610;SDS011;65503;48.534;9.062;2023-10-31T00:07:04;0.70;;;0.70;;
76610;SDS011;65503;48.534;9.062;2023-10-31T00:09:31;0.93;;;0.60;;
76610;SDS011;65503;48.534;9.062;2023-10-31T00:11:58;1.30;;;0.60;;
76610;SDS011;65503;48.534;9.062;2023-10-31T00:14:24;2.45;;;0.70;;
76610;SDS011;65503;48.534;9.062;2023-10-31T00:16:57;2.38;;;0.90;;
76610;SDS011;65503;48.534;9.062;2023-10-31T00:19:24;0.85;;;0.77;;
76610;SDS011;65503;48.534;9.062;2023-10-31T00:21:51;0.85;;;0.60;;
76610;SDS011;65503;48.534;9.062;2023-10-31T00:24:17;2.47;;;0.77;;
76610;SDS011;65503;48.534;9.062;2023-10-31T00:26:44;4.47;;;0.50;;
76610;SDS011;65503;48.534;9.062;2023-10-31T00:29:10;0.50;;;0.50;;
76610;SDS011;65503;48.534;9.062;2023-10-31T00:31:37;0.70;;;0.60;;
76610;SDS011;65503;48.534;9.062;2023-10-31T00:34:07;0.70;;;0.50;;
76610;SDS011;65503;48.534;9.062;2023-10-31T00:36:34;2.17;;;0.70;;
76610;SDS011;65503;48.534;9.062;2023-10-31T00:39:01;0.77;;;0.50;;
76610;SDS011;65503;48.534;9.062;2023-10-31T00:41:27;1.35;;;0.90;;
76610;SDS011;65503;48.534;9.062;2023-10-31T00:43:54;0.68;;;0.65;;
76610;SDS011;65503;48.534;9.062;2023-10-31T00:46:20;3.17;;;0.60;;
76610;SDS011;65503;48.534;9.062;2023-10-31T00:48:47;0.85;;;0.55;;
76610;SDS011;65503;48.534;9.062;2023-10-31T00:51:14;1.08;;;0.60;;
76610;SDS011;65503;48.534;9.062;2023-10-31T00:53:40;4.35;;;0.60;;
76610;SDS011;65503;48.534;9.062;2023-10-31T00:56:07;2.42;;;0.70;;
76610;SDS011;65503;48.534;9.062;2023-10-31T00:58:33;0.43;;;0.43;;
76610;SDS011;65503;48.534;9.062;2023-10-31T01:01:00;1.27;;;0.75;;
76610;SDS011;65503;48.534;9.062;2023-10-31T01:03:27;0.77;;;0.60;;
76610;SDS011;65503;48.534;9.062;2023-10-31T01:05:53;2.47;;;0.70;;
76610;SDS011;65503;48.534;9.062;2023-10-31T01:08:20;0.80;;;0.60;;
76610;SDS011;65503;48.534;9.062;2023-10-31T01:10:46;1.70;;;0.50;;
76610;SDS011;65503;48.534;9.062;2023-10-31T01:13:13;0.93;;;0.50;;
76610;SDS011;65503;48.534;9.062;2023-10-31T01:15:39;0.88;;;0.65;;
76610;SDS011;65503;48.534;9.062;2023-10-31T01:18:06;0.60;;;0.50;;
76610;SDS011;65503;48.534;9.062;2023-10-31T01:20:32;0.75;;;0.60;;
76610;SDS011;65503;48.534;9.062;2023-10-31T01:22:59;0.63;;;0.43;;
76610;SDS011;65503;48.534;9.062;2023-10-31T01:25:26;0.70;;;0.70;;
76610;SDS011;65503;48.534;9.062;2023-10-31T01:27:53;1.17;;;0.80;;
76610;SDS011;65503;48.534;9.062;2023-10-31T01:30:19;2.47;;;0.80;;
76610;SDS011;65503;48.534;9.062;2023-10-31T01:32:46;1.95;;;0.93;;
76610;SDS011;65503;48.534;9.062;2023-10-31T01:35:12;0.60;;;0.60;;
76610;SDS011;65503;48.534;9.062;2023-10-31T01:37:39;1.08;;;0.80;;
76610;SDS011;65503;48.534;9.062;2023-10-31T01:40:05;2.88;;;0.80;;
76610;SDS011;65503;48.534;9.062;2023-10-31T01:42:33;1.60;;;0.80;;
76610;SDS011;65503;48.534;9.062;2023-10-31T01:45:00;1.13;;;0.82;;
76610;SDS011;65503;48.534;9.062;2023-10-31T01:47:26;2.08;;;1.00;;
76610;SDS011;65503;48.534;9.062;2023-10-31T01:49:53;2.60;;;1.08;;
76610;SDS011;65503;48.534;9.062;2023-10-31T01:52:19;2.35;;;1.05;;
76610;SDS011;65503;48.534;9.062;2023-10-31T01:54:46;1.55;;;0.80;;
76610;SDS011;65503;48.534;9.062;2023-10-31T01:57:12;1.33;;;0.80;;
76610;SDS011;65503;48.534;9.062;2023-10-31T01:59:40;1.15;;;0.82;;
76610;SDS011;65503;48.534;9.062;2023-10-31T02:02:06;2.60;;;0.82;;
76610;SDS011;65503;48.534;9.062;2023-10-31T02:04:34;5.43;;;1.02;;
76610;SDS011;65503;48.534;9.062;2023-10-31T02:07:01;1.95;;;0.85;;
76610;SDS011;65503;48.534;9.062;2023-10-31T02:09:27;0.70;;;0.70;;
76610;SDS011;65503;48.534;9.062;2023-10-31T02:11:56;2.95;;;0.90;;
76610;SDS011;65503;48.534;9.062;2023-10-31T02:14:23;2.08;;;0.98;;
76610;SDS011;65503;48.534;9.062;2023-10-31T02:16:50;3.97;;;1.10;;
76610;SDS011;65503;48.534;9.062;2023-10-31T02:19:20;1.08;;;0.80;;
76610;SDS011;65503;48.534;9.062;2023-10-31T02:21:47;2.03;;;1.00;;
76610;SDS011;65503;48.534;9.062;2023-10-31T02:24:13;1.38;;;0.88;;
76610;SDS011;65503;48.534;9.062;2023-10-31T02:26:40;2.00;;;0.93;;
76610;SDS011;65503;48.534;9.062;2023-10-31T02:29:07;1.88;;;0.98;;
76610;SDS011;65503;48.534;9.062;2023-10-31T02:31:33;2.22;;;1.00;;
76610;SDS011;65503;48.534;9.062;2023-10-31T02:34:00;1.15;;;0.80;;
76610;SDS011;65503;48.534;9.062;2023-10-31T02:36:26;1.77;;;1.02;;
76610;SDS011;65503;48.534;9.062;2023-10-31T02:38:53;1.20;;;0.80;;
76610;SDS011;65503;48.534;9.062;2023-10-31T02:41:19;1.90;;;0.90;;
76610;SDS011;65503;48.534;9.062;2023-10-31T02:43:46;1.95;;;0.90;;
76610;SDS011;65503;48.534;9.062;2023-10-31T02:46:13;2.22;;;1.00;;
76610;SDS011;65503;48.534;9.062;2023-10-31T02:48:42;1.75;;;0.80;;
76610;SDS011;65503;48.534;9.062;2023-10-31T02:51:08;2.58;;;1.20;;
76610;SDS011;65503;48.534;9.062;2023-10-31T02:53:35;4.60;;;1.10;;
76610;SDS011;65503;48.534;9.062;2023-10-31T02:56:03;1.45;;;1.00;;
76610;SDS011;65503;48.534;9.062;2023-10-31T02:58:30;2.60;;;1.45;;
76610;SDS011;65503;48.534;9.062;2023-10-31T03:00:56;3.25;;;1.15;;
76610;SDS011;65503;48.534;9.062;2023-10-31T03:03:23;2.22;;;0.88;;
76610;SDS011;65503;48.534;9.062;2023-10-31T03:05:49;2.13;;;0.90;;
76610;SDS011;65503;48.534;9.062;2023-10-31T03:08:16;0.90;;;0.63;;
76610;SDS011;65503;48.534;9.062;2023-10-31T03:10:47;0.95;;;0.70;;
76610;SDS011;65503;48.534;9.062;2023-10-31T03:13:17;0.82;;;0.60;;
76610;SDS011;65503;48.534;9.062;2023-10-31T03:15:46;1.17;;;0.75;;
76610;SDS011;65503;48.534;9.062;2023-10-31T03:18:13;1.38;;;0.60;;
76610;SDS011;65503;48.534;9.062;2023-10-31T03:20:43;0.70;;;0.70;;
76610;SDS011;65503;48.534;9.062;2023-10-31T03:23:13;1.42;;;0.75;;
76610;SDS011;65503;48.534;9.062;2023-10-31T03:25:40;1.95;;;0.90;;
76610;SDS011;65503;48.534;9.062;2023-10-31T03:28:18;1.25;;;0.70;;
76610;SDS011;65503;48.534;9.062;2023-10-31T03:30:47;1.45;;;0.80;;
76610;SDS011;65503;48.534;9.062;2023-10-31T03:33:14;0.93;;;0.77;;
76610;SDS011;65503;48.534;9.062;2023-10-31T03:35:41;2.35;;;0.93;;
76610;SDS011;65503;48.534;9.062;2023-10-31T03:38:08;2.13;;;1.08;;
76610;SDS011;65503;48.534;9.062;2023-10-31T03:40:34;1.90;;;1.05;;
76610;SDS011;65503;48.534;9.062;2023-10-31T03:43:01;1.48;;;1.10;;
76610;SDS011;65503;48.534;9.062;2023-10-31T03:45:29;5.45;;;1.30;;
76610;SDS011;65503;48.534;9.062;2023-10-31T03:47:55;2.53;;;1.30;;
76610;SDS011;65503;48.534;9.062;2023-10-31T03:50:22;3.55;;;1.30;;
76610;SDS011;65503;48.534;9.062;2023-10-31T03:52:48;2.90;;;1.30;;
76610;SDS011;65503;48.534;9.062;2023-10-31T03:55:15;3.88;;;1.50;;
76610;SDS011;65503;48.534;9.062;2023-10-31T03:57:41;5.07;;;1.35;;
76610;SDS011;65503;48.534;9.062;2023-10-31T04:00:08;1.90;;;1.17;;
76610;SDS011;65503;48.534;9.062;2023-10-31T04:02:34;3.67;;;1.30;;
76610;SDS011;65503;48.534;9.062;2023-10-31T04:05:01;3.22;;;1.17;;
76610;SDS011;65503;48.534;9.062;2023-10-31T04:07:28;3.60;;;1.33;;
76610;SDS011;65503;48.534;9.062;2023-10-31T04:09:54;2.08;;;1.25;;
76610;SDS011;65503;48.534;9.062;2023-10-31T04:12:22;2.92;;;1.40;;
76610;SDS011;65503;48.534;9.062;2023-10-31T04:14:49;1.98;;;1.45;;
76610;SDS011;65503;48.534;9.062;2023-10-31T04:17:15;4.13;;;1.52;;
76610;SDS011;65503;48.534;9.062;2023-10-31T04:19:42;4.63;;;1.63;;
76610;SDS011;65503;48.534;9.062;2023-10-31T04:22:08;5.30;;;1.75;;
76610;SDS011;65503;48.534;9.062;2023-10-31T04:24:35;2.50;;;1.38;;
76610;SDS011;65503;48.534;9.062;2023-10-31T04:27:01;3.85;;;1.48;;
76610;SDS011;65503;48.534;9.062;2023-10-31T04:29:28;4.43;;;1.38;;
76610;SDS011;65503;48.534;9.062;2023-10-31T04:31:54;3.95;;;1.65;;
76610;SDS011;65503;48.534;9.062;2023-10-31T04:34:21;2.78;;;1.48;;
76610;SDS011;65503;48.534;9.062;2023-10-31T04:36:47;4.15;;;1.42;;
76610;SDS011;65503;48.534;9.062;2023-10-31T04:39:14;6.45;;;1.73;;
76610;SDS011;65503;48.534;9.062;2023-10-31T04:41:40;3.83;;;1.50;;
76610;SDS011;65503;48.534;9.062;2023-10-31T04:44:06;3.47;;;1.52;;
76610;SDS011;65503;48.534;9.062;2023-10-31T04:46:33;3.55;;;1.50;;
76610;SDS011;65503;48.534;9.062;2023-10-31T04:49:00;2.85;;;1.60;;
76610;SDS011;65503;48.534;9.062;2023-10-31T04:51:26;2.70;;;1.40;;
76610;SDS011;65503;48.534;9.062;2023-10-31T04:53:53;2.28;;;1.48;;
76610;SDS011;65503;48.534;9.062;2023-10-31T04:56:20;3.40;;;1.40;;
76610;SDS011;65503;48.534;9.062;2023-10-31T04:58:46;3.42;;;1.58;;
76610;SDS011;65503;48.534;9.062;2023-10-31T05:01:13;3.42;;;1.60;;
76610;SDS011;65503;48.534;9.062;2023-10-31T05:03:40;4.18;;;1.60;;
76610;SDS011;65503;48.534;9.062;2023-10-31T05:06:06;2.58;;;1.30;;
76610;SDS011;65503;48.534;9.062;2023-10-31T05:08:33;2.35;;;1.20;;
76610;SDS011;65503;48.534;9.062;2023-10-31T05:11:00;3.10;;;1.90;;
76610;SDS011;65503;48.534;9.062;2023-10-31T05:13:26;2.28;;;1.25;;
76610;SDS011;65503;48.534;9.062;2023-10-31T05:15:53;3.42;;;1.10;;
76610;SDS011;65503;48.534;9.062;2023-10-31T05:18:19;3.25;;;1.20;;
76610;SDS011;65503;48.534;9.062;2023-10-31T05:20:46;2.08;;;1.05;;
76610;SDS011;65503;48.534;9.062;2023-10-31T05:23:13;4.18;;;1.08;;
76610;SDS011;65503;48.534;9.062;2023-10-31T05:25:40;1.90;;;1.00;;
76610;SDS011;65503;48.534;9.062;2023-10-31T05:28:06;3.13;;;1.00;;
76610;SDS011;65503;48.534;9.062;2023-10-31T05:30:33;1.70;;;1.10;;
76610;SDS011;65503;48.534;9.062;2023-10-31T05:33:00;2.75;;;1.13;;
76610;SDS011;65503;48.534;9.062;2023-10-31T05:35:26;1.77;;;1.17;;
76610;SDS011;65503;48.534;9.062;2023-10-31T05:37:53;4.72;;;1.10;;
76610;SDS011;65503;48.534;9.062;2023-10-31T05:40:19;2.17;;;1.30;;
76610;SDS011;65503;48.534;9.062;2023-10-31T05:42:48;3.22;;;1.27;;
76610;SDS011;65503;48.534;9.062;2023-10-31T05:45:15;2.67;;;1.30;;
76610;SDS011;65503;48.534;9.062;2023-10-31T05:47:41;3.83;;;1.25;;
76610;SDS011;65503;48.534;9.062;2023-10-31T05:50:08;2.40;;;0.82;;
76610;SDS011;65503;48.534;9.062;2023-10-31T05:52:35;4.07;;;1.00;;
76610;SDS011;65503;48.534;9.062;2023-10-31T05:55:02;2.03;;;0.98;;
76610;SDS011;65503;48.534;9.062;2023-10-31T05:57:29;3.25;;;1.10;;
76610;SDS011;65503;48.534;9.062;2023-10-31T05:59:55;1.67;;;1.00;;
76610;SDS011;65503;48.534;9.062;2023-10-31T06:02:22;2.92;;;1.00;;
76610;SDS011;65503;48.534;9.062;2023-10-31T06:04:49;5.53;;;1.60;;
76610;SDS011;65503;48.534;9.062;2023-10-31T06:07:15;0.90;;;0.80;;
76610;SDS011;65503;48.534;9.062;2023-10-31T06:09:42;1.60;;;1.00;;
76610;SDS011;65503;48.534;9.062;2023-10-31T06:12:09;1.75;;;1.10;;
76610;SDS011;65503;48.534;9.062;2023-10-31T06:14:36;2.25;;;1.17;;
76610;SDS011;65503;48.534;9.062;2023-10-31T06:17:03;2.42;;;0.95;;
76610;SDS011;65503;48.534;9.062;2023-10-31T06:19:33;2.40;;;1.05;;
76610;SDS011;65503;48.534;9.062;2023-10-31T06:22:03;3.35;;;0.95;;
76610;SDS011;65503;48.534;9.062;2023-10-31T06:24:30;3.05;;;1.00;;
76610;SDS011;65503;48.534;9.062;2023-10-31T06:26:56;3.03;;;0.90;;
76610;SDS011;65503;48.534;9.062;2023-10-31T06:29:23;3.65;;;1.10;;
76610;SDS011;65503;48.534;9.062;2023-10-31T06:32:09;3.53;;;1.13;;
76610;SDS011;65503;48.534;9.062;2023-10-31T06:34:36;2.20;;;1.27;;
76610;SDS011;65503;48.534;9.062;2023-10-31T06:37:02;2.28;;;1.10;;
76610;SDS011;65503;48.534;9.062;2023-10-31T06:39:29;3.17;;;1.35;;
76610;SDS011;65503;48.534;9.062;2023-10-31T06:41:56;2.40;;;1.33;;
76610;SDS011;65503;48.534;9.062;2023-10-31T06:44:22;2.72;;;1.20;;
76610;SDS011;65503;48.534;9.062;2023-10-31T06:46:48;2.22;;;1.02;;
76610;SDS011;65503;48.534;9.062;2023-10-31T06:49:15;3.30;;;1.13;;
76610;SDS011;65503;48.534;9.062;2023-10-31T06:51:42;1.55;;;0.90;;
76610;SDS011;65503;48.534;9.062;2023-10-31T06:54:08;1.85;;;1.20;;
76610;SDS011;65503;48.534;9.062;2023-10-31T06:56:35;2.63;;;1.02;;
76610;SDS011;65503;48.534;9.062;2023-10-31T06:59:01;2.65;;;1.15;;
76610;SDS011;65503;48.534;9.062;2023-10-31T07:01:28;3.70;;;1.25;;
76610;SDS011;65503;48.534;9.062;2023-10-31T07:03:54;2.58;;;1.33;;
76610;SDS011;65503;48.534;9.062;2023-10-31T07:06:21;2.08;;;0.88;;
76610;SDS011;65503;48.534;9.062;2023-10-31T07:08:48;1.83;;;1.08;;
76610;SDS011;65503;48.534;9.062;2023-10-31T07:11:14;7.40;;;1.20;;
76610;SDS011;65503;48.534;9.062;2023-10-31T07:13:41;1.73;;;1.00;;
76610;SDS011;65503;48.534;9.062;2023-10-31T07:16:07;3.42;;;1.65;;
76610;SDS011;65503;48.534;9.062;2023-10-31T07:18:34;4.82;;;1.20;;
76610;SDS011;65503;48.534;9.062;2023-10-31T07:21:00;3.92;;;1.35;;
76610;SDS011;65503;48.534;9.062;2023-10-31T07:23:27;2.88;;;1.15;;
76610;SDS011;65503;48.534;9.062;2023-10-31T07:25:53;2.42;;;1.08;;
76610;SDS011;65503;48.534;9.062;2023-10-31T07:28:20;1.92;;;1.00;;
76610;SDS011;65503;48.534;9.062;2023-10-31T07:30:46;4.05;;;1.23;;
76610;SDS011;65503;48.534;9.062;2023-10-31T07:33:13;2.75;;;1.20;;
76610;SDS011;65503;48.534;9.062;2023-10-31T07:35:39;3.42;;;1.38;;
76610;SDS011;65503;48.534;9.062;2023-10-31T07:38:06;3.30;;;1.30;;
76610;SDS011;65503;48.534;9.062;2023-10-31T07:40:32;8.15;;;1.90;;
76610;SDS011;65503;48.534;9.062;2023-10-31T07:42:59;4.70;;;1.35;;
76610;SDS011;65503;48.534;9.062;2023-10-31T07:45:25;2.42;;;1.20;;
76610;SDS011;65503;48.534;9.062;2023-10-31T07:47:52;2.85;;;1.13;;
76610;SDS011;65503;48.534;9.062;2023-10-31T07:50:18;3.20;;;1.80;;
76610;SDS011;65503;48.534;9.062;2023-10-31T07:52:45;2.72;;;1.05;;
76610;SDS011;65503;48.534;9.062;2023-10-31T07:55:13;2.25;;;1.10;;
76610;SDS011;65503;48.534;9.062;2023-10-31T07:57:40;2.42;;;1.25;;
76610;SDS011;65503;48.534;9.062;2023-10-31T08:00:13;4.15;;;1.20;;
76610;SDS011;65503;48.534;9.062;2023-10-31T08:02:40;5.22;;;1.20;;
76610;SDS011;65503;48.534;9.062;2023-10-31T08:05:06;3.70;;;1.38;;
76610;SDS011;65503;48.534;9.062;2023-10-31T08:07:33;11.98;;;1.42;;
76610;SDS011;65503;48.534;9.062;2023-10-31T08:10:00;1.38;;;0.90;;
76610;SDS011;65503;48.534;9.062;2023-10-31T08:12:26;5.82;;;1.40;;
76610;SDS011;65503;48.534;9.062;2023-10-31T08:14:53;4.25;;;1.30;;
76610;SDS011;65503;48.534;9.062;2023-10-31T08:17:19;3.45;;;1.02;;
76610;SDS011;65503;48.534;9.062;2023-10-31T08:19:46;3.47;;;0.98;;
76610;SDS011;65503;48.534;9.062;2023-10-31T08:22:14;3.95;;;1.08;;
76610;SDS011;65503;48.534;9.062;2023-10-31T08:24:40;7.30;;;1.60;;
76610;SDS011;65503;48.534;9.062;2023-10-31T08:27:07;1.08;;;0.60;;
76610;SDS011;65503;48.534;9.062;2023-10-31T08:29:34;1.52;;;0.80;;
76610;SDS011;65503;48.534;9.062;2023-10-31T08:32:00;4.32;;;1.13;;
76610;SDS011;65503;48.534;9.062;2023-10-31T08:34:27;3.17;;;0.80;;
76610;SDS011;65503;48.534;9.062;2023-10-31T08:36:53;1.85;;;0.95;;
76610;SDS011;65503;48.534;9.062;2023-10-31T08:39:20;6.28;;;1.00;;
76610;SDS011;65503;48.534;9.062;2023-10-31T08:41:53;3.35;;;0.90;;
76610;SDS011;65503;48.534;9.062;2023-10-31T08:44:21;2.25;;;0.90;;
76610;SDS011;65503;48.534;9.062;2023-10-31T08:46:48;3.33;;;1.60;;
76610;SDS011;65503;48.534;9.062;2023-10-31T08:49:14;3.55;;;1.20;;
76610;SDS011;65503;48.534;9.062;2023-10-31T08:51:42;4.82;;;1.00;;
76610;SDS011;65503;48.534;9.062;2023-10-31T08:54:08;4.25;;;1.13;;
76610;SDS011;65503;48.534;9.062;2023-10-31T08:56:35;4.25;;;0.82;;
76610;SDS011;65503;48.534;9.062;2023-10-31T08:59:02;2.22;;;1.00;;
76610;SDS011;65503;48.534;9.062;2023-10-31T09:01:29;2.72;;;1.00;;
76610;SDS011;65503;48.534;9.062;2023-10-31T09:03:56;2.80;;;1.05;;
76610;SDS011;65503;48.534;9.062;2023-10-31T09:06:25;4.68;;;1.15;;
76610;SDS011;65503;48.534;9.062;2023-10-31T09:08:51;1.13;;;0.77;;
76610;SDS011;65503;48.534;9.062;2023-10-31T09:11:18;2.40;;;1.02;;
76610;SDS011;65503;48.534;9.062;2023-10-31T09:13:44;2.97;;;1.10;;
76610;SDS011;65503;48.534;9.062;2023-10-31T09:16:11;3.53;;;1.13;;
76610;SDS011;65503;48.534;9.062;2023-10-31T09:18:38;4.10;;;1.00;;
76610;SDS011;65503;48.534;9.062;2023-10-31T09:21:05;2.65;;;1.05;;
76610;SDS011;65503;48.534;9.062;2023-10-31T09:23:31;5.10;;;0.88;;
76610;SDS011;65503;48.534;9.062;2023-10-31T09:25:58;5.80;;;1.20;;
76610;SDS011;65503;48.534;9.062;2023-10-31T09:28:25;2.30;;;0.95;;
76610;SDS011;65503;48.534;9.062;2023-10-31T09:30:52;10.15;;;1.17;;
76610;SDS011;65503;48.534;9.062;2023-10-31T09:33:18;5.75;;;0.93;;
76610;SDS011;65503;48.534;9.062;2023-10-31T09:35:45;3.78;;;1.00;;
76610;SDS011;65503;48.534;9.062;2023-10-31T09:38:11;5.00;;;1.15;;
76610;SDS011;65503;48.534;9.062;2023-10-31T09:40:38;3.65;;;1.10;;
76610;SDS011;65503;48.534;9.062;2023-10-31T09:43:05;2.70;;;0.80;;
76610;SDS011;65503;48.534;9.062;2023-10-31T09:45:31;3.38;;;1.13;;
76610;SDS011;65503;48.534;9.062;2023-10-31T09:47:58;2.38;;;0.80;;
76610;SDS011;65503;48.534;9.062;2023-10-31T09:50:26;1.92;;;0.85;;
76610;SDS011;65503;48.534;9.062;2023-10-31T09:52:53;4.78;;;1.10;;
76610;SDS011;65503;48.534;9.062;2023-10-31T09:55:21;2.47;;;0.80;;
76610;SDS011;65503;48.534;9.062;2023-10-31T09:57:48;4.25;;;1.00;;
76610;SDS011;65503;48.534;9.062;2023-10-31T10:00:15;2.10;;;0.68;;
76610;SDS011;65503;48.534;9.062;2023-10-31T10:02:42;3.05;;;0.90;;
76610;SDS011;65503;48.534;9.062;2023-10-31T10:05:09;2.85;;;0.85;;
76610;SDS011;65503;48.534;9.062;2023-10-31T10:07:35;2.63;;;0.98;;
76610;SDS011;65503;48.534;9.062;2023-10-31T10:10:02;3.83;;;1.05;;
76610;SDS011;65503;48.534;9.062;2023-10-31T10:12:29;3.17;;;0.93;;
76610;SDS011;65503;48.534;9.062;2023-10-31T10:14:56;6.93;;;1.15;;
76610;SDS011;65503;48.534;9.062;2023-10-31T10:20:09;2.25;;;0.98;;
76610;SDS011;65503;48.534;9.062;2023-10-31T10:22:41;3.05;;;1.10;;
76610;SDS011;65503;48.534;9.062;2023-10-31T10:25:11;4.30;;;1.13;;
76610;SDS011;65503;48.534;9.062;2023-10-31T10:27:42;5.70;;;1.10;;
76610;SDS011;65503;48.534;9.062;2023-10-31T10:30:08;3.45;;;1.05;;
76610;SDS011;65503;48.534;9.062;2023-10-31T10:32:36;4.32;;;1.10;;
76610;SDS011;65503;48.534;9.062;2023-10-31T10:35:02;6.65;;;1.00;;
76610;SDS011;65503;48.534;9.062;2023-10-31T10:37:30;5.35;;;1.05;;
76610;SDS011;65503;48.534;9.062;2023-10-31T10:39:57;4.65;;;0.80;;
76610;SDS011;65503;48.534;9.062;2023-10-31T10:42:31;2.53;;;0.90;;
76610;SDS011;65503;48.534;9.062;2023-10-31T10:45:02;2.47;;;1.00;;
76610;SDS011;65503;48.534;9.062;2023-10-31T10:47:33;4.20;;;1.00;;
76610;SDS011;65503;48.534;9.062;2023-10-31T10:50:02;6.00;;;1.70;;
76610;SDS011;65503;48.534;9.062;2023-10-31T10:52:35;2.42;;;0.80;;
76610;SDS011;65503;48.534;9.062;2023-10-31T10:55:09;4.38;;;0.70;;
76610;SDS011;65503;48.534;9.062;2023-10-31T11:00:20;2.90;;;0.70;;
76610;SDS011;65503;48.534;9.062;2023-10-31T11:02:51;2.95;;;0.63;;
76610;SDS011;65503;48.534;9.062;2023-10-31T11:05:19;2.60;;;0.70;;
76610;SDS011;65503;48.534;9.062;2023-10-31T11:07:46;1.30;;;0.60;;
76610;SDS011;65503;48.534;9.062;2023-10-31T11:10:14;0.80;;;0.50;;
76610;SDS011;65503;48.534;9.062;2023-10-31T11:12:40;3.80;;;1.05;;
76610;SDS011;65503;48.534;9.062;2023-10-31T11:20:13;0.55;;;0.43;;
76610;SDS011;65503;48.534;9.062;2023-10-31T11:22:42;3.30;;;0.60;;
76610;SDS011;65503;48.534;9.062;2023-10-31T11:25:12;0.85;;;0.30;;
76610;SDS011;65503;48.534;9.062;2023-10-31T11:27:51;0.85;;;0.70;;
76610;SDS011;65503;48.534;9.062;2023-10-31T11:30:27;2.95;;;0.98;;
76610;SDS011;65503;48.534;9.062;2023-10-31T11:32:57;1.80;;;0.50;;
76610;SDS011;65503;48.534;9.062;2023-10-31T11:35:34;1.17;;;0.70;;
76610;SDS011;65503;48.534;9.062;2023-10-31T11:38:05;4.93;;;0.80;;
76610;SDS011;65503;48.534;9.062;2023-10-31T11:40:33;0.80;;;0.60;;
76610;SDS011;65503;48.534;9.062;2023-10-31T11:43:06;1.98;;;0.70;;
76610;SDS011;65503;48.534;9.062;2023-10-31T11:48:03;0.65;;;0.35;;
76610;SDS011;65503;48.534;9.062;2023-10-31T11:50:31;1.73;;;0.57;;
76610;SDS011;65503;48.534;9.062;2023-10-31T11:52:59;9.73;;;1.33;;
76610;SDS011;65503;48.534;9.062;2023-10-31T11:55:35;3.72;;;0.70;;
76610;SDS011;65503;48.534;9.062;2023-10-31T12:00:47;3.42;;;0.40;;
76610;SDS011;65503;48.534;9.062;2023-10-31T12:03:16;3.58;;;0.90;;
76610;SDS011;65503;48.534;9.062;2023-10-31T12:05:53;1.92;;;0.50;;
76610;SDS011;65503;48.534;9.062;2023-10-31T12:08:25;5.68;;;0.85;;
76610;SDS011;65503;48.534;9.062;2023-10-31T12:11:05;7.72;;;0.60;;
76610;SDS011;65503;48.534;9.062;2023-10-31T12:13:39;1.13;;;0.47;;
76610;SDS011;65503;48.534;9.062;2023-10-31T12:16:08;1.38;;;0.70;;
76610;SDS011;65503;48.534;9.062;2023-10-31T12:18:37;0.65;;;0.35;;
76610;SDS011;65503;48.534;9.062;2023-10-31T12:21:06;2.08;;;0.77;;
76610;SDS011;65503;48.534;9.062;2023-10-31T12:23:34;1.17;;;0.52;;
76610;SDS011;65503;48.534;9.062;2023-10-31T12:26:01;4.90;;;0.65;;
76610;SDS011;65503;48.534;9.062;2023-10-31T12:28:28;2.97;;;0.60;;
76610;SDS011;65503;48.534;9.062;2023-10-31T12:30:55;1.08;;;0.43;;
76610;SDS011;65503;48.534;9.062;2023-10-31T12:33:22;1.92;;;0.63;;
76610;SDS011;65503;48.534;9.062;2023-10-31T12:35:58;1.27;;;0.60;;
76610;SDS011;65503;48.534;9.062;2023-10-31T12:38:26;2.08;;;0.50;;
76610;SDS011;65503;48.534;9.062;2023-10-31T12:43:20;0.80;;;0.40;;
76610;SDS011;65503;48.534;9.062;2023-10-31T12:45:47;3.35;;;0.60;;
76610;SDS011;65503;48.534;9.062;2023-10-31T12:48:14;1.08;;;0.30;;
76610;SDS011;65503;48.534;9.062;2023-10-31T12:50:40;1.92;;;0.40;;
76610;SDS011;65503;48.534;9.062;2023-10-31T12:53:07;1.10;;;0.47;;
76610;SDS011;65503;48.534;9.062;2023-10-31T12:55:41;2.67;;;0.50;;
76610;SDS011;65503;48.534;9.062;2023-10-31T12:58:08;1.02;;;0.70;;
76610;SDS011;65503;48.534;9.062;2023-10-31T13:00:37;3.47;;;0.70;;
76610;SDS011;65503;48.534;9.062;2023-10-31T13:03:07;1.52;;;0.52;;
76610;SDS011;65503;48.534;9.062;2023-10-31T13:05:35;0.65;;;0.60;;
76610;SDS011;65503;48.534;9.062;2023-10-31T13:08:02;0.93;;;0.35;;
76610;SDS011;65503;48.534;9.062;2023-10-31T13:10:32;0.93;;;0.60;;
76610;SDS011;65503;48.534;9.062;2023-10-31T13:12:59;3.30;;;0.60;;
76610;SDS011;65503;48.534;9.062;2023-10-31T13:15:25;7.35;;;0.80;;
76610;SDS011;65503;48.534;9.062;2023-10-31T13:17:52;1.50;;;0.47;;
76610;SDS011;65503;48.534;9.062;2023-10-31T13:20:19;3.90;;;0.63;;
76610;SDS011;65503;48.534;9.062;2023-10-31T13:22:47;2.78;;;0.93;;
76610;SDS011;65503;48.534;9.062;2023-10-31T13:25:14;2.33;;;0.50;;
76610;SDS011;65503;48.534;9.062;2023-10-31T13:27:43;6.72;;;1.30;;
76610;SDS011;65503;48.534;9.062;2023-10-31T13:30:11;1.95;;;0.60;;
76610;SDS011;65503;48.534;9.062;2023-10-31T13:32:38;1.85;;;0.60;;
76610;SDS011;65503;48.534;9.062;2023-10-31T13:35:05;1.58;;;0.80;;
76610;SDS011;65503;48.534;9.062;2023-10-31T13:37:32;2.05;;;1.00;;
76610;SDS011;65503;48.534;9.062;2023-10-31T13:40:01;1.02;;;0.60;;
76610;SDS011;65503;48.534;9.062;2023-10-31T13:42:28;1.63;;;0.63;;
76610;SDS011;65503;48.534;9.062;2023-10-31T13:44:54;0.65;;;0.50;;
76610;SDS011;65503;48.534;9.062;2023-10-31T13:47:21;2.85;;;0.90;;
76610;SDS011;65503;48.534;9.062;2023-10-31T13:49:48;0.90;;;0.57;;
76610;SDS011;65503;48.534;9.062;2023-10-31T13:52:15;2.90;;;0.63;;
76610;SDS011;65503;48.534;9.062;2023-10-31T13:54:42;1.63;;;0.80;;
76610;SDS011;65503;48.534;9.062;2023-10-31T13:59:36;3.58;;;0.73;;
76610;SDS011;65503;48.534;9.062;2023-10-31T14:02:03;2.97;;;0.68;;
76610;SDS011;65503;48.534;9.062;2023-10-31T14:04:29;4.72;;;0.80;;
76610;SDS011;65503;48.534;9.062;2023-10-31T14:06:57;2.03;;;0.70;;
76610;SDS011;65503;48.534;9.062;2023-10-31T14:09:23;3.00;;;0.55;;
76610;SDS011;65503;48.534;9.062;2023-10-31T14:11:50;0.90;;;0.60;;
76610;SDS011;65503;48.534;9.062;2023-10-31T14:14:16;2.03;;;0.77;;
76610;SDS011;65503;48.534;9.062;2023-10-31T14:16:43;2.90;;;0.80;;
76610;SDS011;65503;48.534;9.062;2023-10-31T14:19:11;1.95;;;1.00;;
76610;SDS011;65503;48.534;9.062;2023-10-31T14:21:39;4.80;;;0.88;;
76610;SDS011;65503;48.534;9.062;2023-10-31T14:24:06;2.60;;;0.80;;
76610;SDS011;65503;48.534;9.062;2023-10-31T14:26:38;1.83;;;0.70;;
76610;SDS011;65503;48.534;9.062;2023-10-31T14:29:06;2.00;;;0.90;;
76610;SDS011;65503;48.534;9.062;2023-10-31T14:31:37;1.50;;;0.70;;
76610;SDS011;65503;48.534;9.062;2023-10-31T14:34:08;1.27;;;0.50;;
76610;SDS011;65503;48.534;9.062;2023-10-31T14:36:35;0.88;;;0.55;;
76610;SDS011;65503;48.534;9.062;2023-10-31T14:39:02;2.00;;;0.68;;
76610;SDS011;65503;48.534;9.062;2023-10-31T14:41:28;3.00;;;0.70;;
76610;SDS011;65503;48.534;9.062;2023-10-31T14:44:00;1.42;;;0.68;;
76610;SDS011;65503;48.534;9.062;2023-10-31T14:46:29;0.77;;;0.57;;
76610;SDS011;65503;48.534;9.062;2023-10-31T14:51:23;2.00;;;0.80;;
76610;SDS011;65503;48.534;9.062;2023-10-31T14:53:50;3.60;;;0.70;;
76610;SDS011;65503;48.534;9.062;2023-10-31T14:56:16;0.98;;;0.60;;
76610;SDS011;65503;48.534;9.062;2023-10-31T14:58:43;3.30;;;0.85;;
76610;SDS011;65503;48.534;9.062;2023-10-31T15:01:10;4.07;;;0.80;;
76610;SDS011;65503;48.534;9.062;2023-10-31T15:03:36;0.93;;;0.68;;
76610;SDS011;65503;48.534;9.062;2023-10-31T15:06:03;1.30;;;0.60;;
76610;SDS011;65503;48.534;9.062;2023-10-31T15:08:31;1.27;;;0.70;;
76610;SDS011;65503;48.534;9.062;2023-10-31T15:10:58;1.13;;;0.80;;
76610;SDS011;65503;48.534;9.062;2023-10-31T15:13:25;3.33;;;0.80;;